TimeAKST,TemperatureF,Dew PointF,Humidity,Sea Level PressureIn,VisibilityMPH,Wind Direction,Wind SpeedMPH,Gust SpeedMPH,PrecipitationIn,Events,Conditions,WindDirDegrees,DateUTC
12:55 AM,-13.2,-19.1,75,29.92,10.0,East,4.6,-,N/A,,Clear,100,2012-12-22 09:55:00
1:55 AM,-13.0,-19.1,74,29.91,10.0,Calm,Calm,-,N/A,,Clear,0,2012-12-22 10:55:00
2:55 AM,-11.0,-16.8,76,29.90,10.0,East,5.8,-,N/A,,Clear,100,2012-12-22 11:55:00
3:55 AM,-11.0,-16.6,76,29.88,10.0,ENE,3.5,-,N/A,,Clear,60,2012-12-22 12:55:00
4:55 AM,-12.6,-18.6,75,29.86,10.0,Calm,Calm,-,N/A,,Clear,0,2012-12-22 13:55:00
5:55 AM,-16.2,-22.9,72,29.85,10.0,Calm,Calm,-,N/A,,Clear,0,2012-12-22 14:55:00
6:55 AM,-11.0,-16.6,76,29.83,10.0,East,4.6,-,N/A,,Clear,90,2012-12-22 15:55:00
7:55 AM,-14.1,-20.2,74,29.83,10.0,Calm,Calm,-,N/A,,Clear,0,2012-12-22 16:55:00
8:55 AM,-14.6,-20.9,73,29.82,10.0,Calm,Calm,-,N/A,,Clear,0,2012-12-22 17:55:00
9:55 AM,-13.2,-18.9,75,29.82,10.0,Calm,Calm,-,N/A,,Clear,0,2012-12-22 18:55:00
10:55 AM,-11.4,-16.8,77,29.81,10.0,Calm,Calm,-,N/A,,Clear,0,2012-12-22 19:55:00
11:55 AM,-11.4,-17.1,76,29.80,10.0,ESE,3.5,-,N/A,,Clear,110,2012-12-22 20:55:00
12:55 PM,-4.4,-9.4,79,29.79,10.0,Calm,Calm,-,N/A,,Clear,0,2012-12-22 21:55:00
1:55 PM,-10.3,-16.2,75,29.78,10.0,ESE,5.8,-,N/A,,Clear,110,2012-12-22 22:55:00
2:55 PM,8.2,4.5,85,29.76,10.0,ENE,11.5,-,N/A,,Clear,70,2012-12-22 23:55:00
3:55 PM,11.1,-4.2,50,29.75,10.0,ENE,11.5,-,N/A,,Overcast,70,2012-12-23 00:55:00
4:55 PM,12.6,-6.3,43,29.74,10.0,ENE,17.3,26.5,N/A,,Overcast,60,2012-12-23 01:55:00
5:55 PM,10.4,-3.5,54,29.74,10.0,NE,12.7,21.9,N/A,,Partly Cloudy,50,2012-12-23 02:55:00
6:55 PM,10.9,-3.3,53,29.74,10.0,ENE,12.7,20.7,N/A,,Scattered Clouds,60,2012-12-23 03:55:00
7:55 PM,11.1,-6.9,44,29.75,10.0,ENE,13.8,-,N/A,,Clear,60,2012-12-23 04:55:00
8:55 PM,8.1,-4.9,56,29.76,10.0,ENE,9.2,-,N/A,,Partly Cloudy,60,2012-12-23 05:55:00
9:55 PM,7.7,-5.3,56,29.76,10.0,ENE,11.5,-,N/A,,Clear,60,2012-12-23 06:55:00
10:55 PM,8.2,-6.0,52,29.77,10.0,ENE,9.2,-,N/A,,Clear,70,2012-12-23 07:55:00
11:55 PM,7.7,-6.0,54,29.76,10.0,ENE,8.1,-,N/A,,Clear,70,2012-12-23 08:55:00